sensor_id;sensor_type;location;lat;lon;timestamp;temperature;humidity
2489;DHT22;1255;48.716;9.124;2023-07-02T00:01:49;16.70;99.90
2489;DHT22;1255;48.716;9.124;2023-07-02T00:04:16;16.70;99.90
2489;DHT22;1255;48.716;9.124;2023-07-02T00:06:46;16.70;99.90
2489;DHT22;1255;48.716;9.124;2023-07-02T00:09:14;16.70;99.90
2489;DHT22;1255;48.716;9.124;2023-07-02T00:11:42;16.70;99.90
2489;DHT22;1255;48.716;9.124;2023-07-02T00:14:10;16.70;99.90
2489;DHT22;1255;48.716;9.124;2023-07-02T00:16:39;16.70;99.90
2489;DHT22;1255;48.716;9.124;2023-07-02T00:19:06;16.60;99.90
2489;DHT22;1255;48.716;9.124;2023-07-02T00:21:33;16.60;99.90
2489;DHT22;1255;48.716;9.124;2023-07-02T00:24:04;16.60;99.90
2489;DHT22;1255;48.716;9.124;2023-07-02T00:26:31;16.50;99.90
2489;DHT22;1255;48.716;9.124;2023-07-02T00:28:58;16.50;99.90
2489;DHT22;1255;48.716;9.124;2023-07-02T00:31:25;16.50;99.90
2489;DHT22;1255;48.716;9.124;2023-07-02T00:33:51;16.50;99.90
2489;DHT22;1255;48.716;9.124;2023-07-02T00:36:18;16.50;99.90
2489;DHT22;1255;48.716;9.124;2023-07-02T00:38:46;16.40;99.90
2489;DHT22;1255;48.716;9.124;2023-07-02T00:41:15;16.40;99.90
2489;DHT22;1255;48.716;9.124;2023-07-02T00:43:42;16.40;99.90
2489;DHT22;1255;48.716;9.124;2023-07-02T00:46:13;16.40;99.90
2489;DHT22;1255;48.716;9.124;2023-07-02T00:48:44;16.40;99.90
2489;DHT22;1255;48.716;9.124;2023-07-02T00:51:14;16.30;99.90
2489;DHT22;1255;48.716;9.124;2023-07-02T00:53:41;16.30;99.90
2489;DHT22;1255;48.716;9.124;2023-07-02T00:56:08;16.30;99.90
2489;DHT22;1255;48.716;9.124;2023-07-02T00:58:41;16.30;99.90
2489;DHT22;1255;48.716;9.124;2023-07-02T01:01:14;16.30;99.90
2489;DHT22;1255;48.716;9.124;2023-07-02T01:03:50;16.30;99.90
2489;DHT22;1255;48.716;9.124;2023-07-02T01:06:20;16.30;99.90
2489;DHT22;1255;48.716;9.124;2023-07-02T01:08:51;16.40;99.90
2489;DHT22;1255;48.716;9.124;2023-07-02T01:11:18;16.30;99.90
2489;DHT22;1255;48.716;9.124;2023-07-02T01:13:48;16.30;99.90
2489;DHT22;1255;48.716;9.124;2023-07-02T01:16:17;16.30;99.90
2489;DHT22;1255;48.716;9.124;2023-07-02T01:18:44;16.30;99.90
2489;DHT22;1255;48.716;9.124;2023-07-02T01:21:13;16.30;99.90
2489;DHT22;1255;48.716;9.124;2023-07-02T01:23:39;16.30;99.90
2489;DHT22;1255;48.716;9.124;2023-07-02T01:26:07;16.30;99.90
2489;DHT22;1255;48.716;9.124;2023-07-02T01:28:35;16.30;99.90
2489;DHT22;1255;48.716;9.124;2023-07-02T01:31:04;16.30;99.90
2489;DHT22;1255;48.716;9.124;2023-07-02T01:33:31;16.30;99.90
2489;DHT22;1255;48.716;9.124;2023-07-02T01:35:58;16.20;99.90
2489;DHT22;1255;48.716;9.124;2023-07-02T01:38:26;16.20;99.90
2489;DHT22;1255;48.716;9.124;2023-07-02T01:40:53;16.20;99.90
2489;DHT22;1255;48.716;9.124;2023-07-02T01:43:20;16.20;99.90
2489;DHT22;1255;48.716;9.124;2023-07-02T01:45:47;16.20;99.90
2489;DHT22;1255;48.716;9.124;2023-07-02T01:48:14;16.20;99.90
2489;DHT22;1255;48.716;9.124;2023-07-02T01:50:41;16.20;99.90
2489;DHT22;1255;48.716;9.124;2023-07-02T01:53:08;16.20;99.90
2489;DHT22;1255;48.716;9.124;2023-07-02T01:55:36;16.10;99.90
2489;DHT22;1255;48.716;9.124;2023-07-02T01:58:03;16.10;99.90
2489;DHT22;1255;48.716;9.124;2023-07-02T02:00:29;16.00;99.90
2489;DHT22;1255;48.716;9.124;2023-07-02T02:02:56;16.00;99.90
2489;DHT22;1255;48.716;9.124;2023-07-02T02:05:23;15.90;99.90
2489;DHT22;1255;48.716;9.124;2023-07-02T02:07:50;15.90;99.90
2489;DHT22;1255;48.716;9.124;2023-07-02T02:10:16;15.90;99.90
2489;DHT22;1255;48.716;9.124;2023-07-02T02:12:45;15.90;99.90
2489;DHT22;1255;48.716;9.124;2023-07-02T02:15:11;15.80;99.90
2489;DHT22;1255;48.716;9.124;2023-07-02T02:17:39;15.80;99.90
2489;DHT22;1255;48.716;9.124;2023-07-02T02:20:07;15.80;99.90
2489;DHT22;1255;48.716;9.124;2023-07-02T02:22:48;15.80;99.90
2489;DHT22;1255;48.716;9.124;2023-07-02T02:25:15;15.80;99.90
2489;DHT22;1255;48.716;9.124;2023-07-02T02:27:42;15.80;99.90
2489;DHT22;1255;48.716;9.124;2023-07-02T02:30:11;15.80;99.90
2489;DHT22;1255;48.716;9.124;2023-07-02T02:32:38;15.80;99.90
2489;DHT22;1255;48.716;9.124;2023-07-02T02:35:06;15.70;99.90
2489;DHT22;1255;48.716;9.124;2023-07-02T02:37:34;15.70;99.90
2489;DHT22;1255;48.716;9.124;2023-07-02T02:40:01;15.70;99.90
2489;DHT22;1255;48.716;9.124;2023-07-02T02:42:28;15.70;99.90
2489;DHT22;1255;48.716;9.124;2023-07-02T02:44:55;15.70;99.90
2489;DHT22;1255;48.716;9.124;2023-07-02T02:47:23;15.70;99.90
2489;DHT22;1255;48.716;9.124;2023-07-02T02:49:50;15.70;99.90
2489;DHT22;1255;48.716;9.124;2023-07-02T02:52:16;15.70;99.90
2489;DHT22;1255;48.716;9.124;2023-07-02T02:54:43;15.70;99.90
2489;DHT22;1255;48.716;9.124;2023-07-02T02:57:10;15.70;99.90
2489;DHT22;1255;48.716;9.124;2023-07-02T02:59:37;15.80;99.90
2489;DHT22;1255;48.716;9.124;2023-07-02T03:02:04;15.80;99.90
2489;DHT22;1255;48.716;9.124;2023-07-02T03:04:32;15.80;99.90
2489;DHT22;1255;48.716;9.124;2023-07-02T03:06:59;15.80;99.90
2489;DHT22;1255;48.716;9.124;2023-07-02T03:09:26;15.80;99.90
2489;DHT22;1255;48.716;9.124;2023-07-02T03:11:52;15.80;99.90
2489;DHT22;1255;48.716;9.124;2023-07-02T03:14:19;15.80;99.90
2489;DHT22;1255;48.716;9.124;2023-07-02T03:16:46;15.80;99.90
2489;DHT22;1255;48.716;9.124;2023-07-02T03:19:13;15.80;99.90
2489;DHT22;1255;48.716;9.124;2023-07-02T03:21:43;15.70;99.90
2489;DHT22;1255;48.716;9.124;2023-07-02T03:24:10;15.70;99.90
2489;DHT22;1255;48.716;9.124;2023-07-02T03:26:38;15.70;99.90
2489;DHT22;1255;48.716;9.124;2023-07-02T03:29:06;15.70;99.90
2489;DHT22;1255;48.716;9.124;2023-07-02T03:31:33;15.70;99.90
2489;DHT22;1255;48.716;9.124;2023-07-02T03:34:02;15.60;99.90
2489;DHT22;1255;48.716;9.124;2023-07-02T03:36:29;15.60;99.90
2489;DHT22;1255;48.716;9.124;2023-07-02T03:38:58;15.60;99.90
2489;DHT22;1255;48.716;9.124;2023-07-02T03:41:25;15.60;99.90
2489;DHT22;1255;48.716;9.124;2023-07-02T03:43:52;15.50;99.90
2489;DHT22;1255;48.716;9.124;2023-07-02T03:46:18;15.40;99.90
2489;DHT22;1255;48.716;9.124;2023-07-02T03:48:45;15.40;99.90
2489;DHT22;1255;48.716;9.124;2023-07-02T03:51:12;15.40;99.90
2489;DHT22;1255;48.716;9.124;2023-07-02T03:53:39;15.40;99.90
2489;DHT22;1255;48.716;9.124;2023-07-02T03:56:08;15.40;99.90
2489;DHT22;1255;48.716;9.124;2023-07-02T03:58:35;15.30;99.90
2489;DHT22;1255;48.716;9.124;2023-07-02T04:01:01;15.20;99.90
2489;DHT22;1255;48.716;9.124;2023-07-02T04:03:28;15.20;99.90
2489;DHT22;1255;48.716;9.124;2023-07-02T04:05:55;15.20;99.90
2489;DHT22;1255;48.716;9.124;2023-07-02T04:08:22;15.20;99.90
2489;DHT22;1255;48.716;9.124;2023-07-02T04:10:50;15.10;99.90
2489;DHT22;1255;48.716;9.124;2023-07-02T04:13:18;15.10;99.90
2489;DHT22;1255;48.716;9.124;2023-07-02T04:15:45;15.20;99.90
2489;DHT22;1255;48.716;9.124;2023-07-02T04:18:12;15.10;99.90
2489;DHT22;1255;48.716;9.124;2023-07-02T04:20:39;15.10;99.90
2489;DHT22;1255;48.716;9.124;2023-07-02T04:23:06;15.10;99.90
2489;DHT22;1255;48.716;9.124;2023-07-02T04:25:33;15.20;99.90
2489;DHT22;1255;48.716;9.124;2023-07-02T04:28:00;15.20;99.90
2489;DHT22;1255;48.716;9.124;2023-07-02T04:30:28;15.20;99.90
2489;DHT22;1255;48.716;9.124;2023-07-02T04:32:55;15.20;99.90
2489;DHT22;1255;48.716;9.124;2023-07-02T04:35:22;15.30;99.90
2489;DHT22;1255;48.716;9.124;2023-07-02T04:37:48;15.30;99.90
2489;DHT22;1255;48.716;9.124;2023-07-02T04:40:16;15.30;99.90
2489;DHT22;1255;48.716;9.124;2023-07-02T04:42:43;15.30;99.90
2489;DHT22;1255;48.716;9.124;2023-07-02T04:45:14;15.30;99.90
2489;DHT22;1255;48.716;9.124;2023-07-02T04:47:44;15.30;99.90
2489;DHT22;1255;48.716;9.124;2023-07-02T04:50:11;15.30;99.90
2489;DHT22;1255;48.716;9.124;2023-07-02T04:52:38;15.30;99.90
2489;DHT22;1255;48.716;9.124;2023-07-02T04:55:06;15.30;99.90
2489;DHT22;1255;48.716;9.124;2023-07-02T04:57:33;15.30;99.90
2489;DHT22;1255;48.716;9.124;2023-07-02T05:00:00;15.40;99.90
2489;DHT22;1255;48.716;9.124;2023-07-02T05:02:27;15.40;99.90
2489;DHT22;1255;48.716;9.124;2023-07-02T05:04:55;15.40;99.90
2489;DHT22;1255;48.716;9.124;2023-07-02T05:07:22;15.50;99.90
2489;DHT22;1255;48.716;9.124;2023-07-02T05:09:48;15.50;99.90
2489;DHT22;1255;48.716;9.124;2023-07-02T05:12:17;15.50;99.90
2489;DHT22;1255;48.716;9.124;2023-07-02T05:14:44;15.50;99.90
2489;DHT22;1255;48.716;9.124;2023-07-02T05:17:11;15.50;99.90
2489;DHT22;1255;48.716;9.124;2023-07-02T05:19:39;15.50;99.90
2489;DHT22;1255;48.716;9.124;2023-07-02T05:22:09;15.50;99.90
2489;DHT22;1255;48.716;9.124;2023-07-02T05:24:36;15.50;99.90
2489;DHT22;1255;48.716;9.124;2023-07-02T05:27:04;15.60;99.90
2489;DHT22;1255;48.716;9.124;2023-07-02T05:29:30;15.60;99.90
2489;DHT22;1255;48.716;9.124;2023-07-02T05:31:57;15.60;99.90
2489;DHT22;1255;48.716;9.124;2023-07-02T05:34:24;15.70;99.90
2489;DHT22;1255;48.716;9.124;2023-07-02T05:36:51;15.70;99.90
2489;DHT22;1255;48.716;9.124;2023-07-02T05:39:19;15.70;99.90
2489;DHT22;1255;48.716;9.124;2023-07-02T05:41:47;15.80;99.90
2489;DHT22;1255;48.716;9.124;2023-07-02T05:44:14;15.70;99.90
2489;DHT22;1255;48.716;9.124;2023-07-02T05:46:40;15.70;99.90
2489;DHT22;1255;48.716;9.124;2023-07-02T05:49:07;15.80;99.90
2489;DHT22;1255;48.716;9.124;2023-07-02T05:51:34;15.80;99.90
2489;DHT22;1255;48.716;9.124;2023-07-02T05:54:01;15.80;99.90
2489;DHT22;1255;48.716;9.124;2023-07-02T05:56:34;15.90;99.90
2489;DHT22;1255;48.716;9.124;2023-07-02T05:59:02;15.90;99.90
2489;DHT22;1255;48.716;9.124;2023-07-02T06:01:29;15.90;99.90
2489;DHT22;1255;48.716;9.124;2023-07-02T06:03:56;16.00;99.90
2489;DHT22;1255;48.716;9.124;2023-07-02T06:06:23;16.00;99.90
2489;DHT22;1255;48.716;9.124;2023-07-02T06:08:50;16.00;99.90
2489;DHT22;1255;48.716;9.124;2023-07-02T06:11:16;16.10;99.90
2489;DHT22;1255;48.716;9.124;2023-07-02T06:13:44;16.20;99.90
2489;DHT22;1255;48.716;9.124;2023-07-02T06:16:11;16.20;99.90
2489;DHT22;1255;48.716;9.124;2023-07-02T06:18:38;16.20;99.90
2489;DHT22;1255;48.716;9.124;2023-07-02T06:21:05;16.20;99.90
2489;DHT22;1255;48.716;9.124;2023-07-02T06:23:40;16.20;99.90
2489;DHT22;1255;48.716;9.124;2023-07-02T06:26:06;16.30;99.90
2489;DHT22;1255;48.716;9.124;2023-07-02T06:28:33;16.30;99.90
2489;DHT22;1255;48.716;9.124;2023-07-02T06:31:01;16.40;99.90
2489;DHT22;1255;48.716;9.124;2023-07-02T06:33:28;16.40;99.90
2489;DHT22;1255;48.716;9.124;2023-07-02T06:35:55;16.60;99.90
2489;DHT22;1255;48.716;9.124;2023-07-02T06:38:22;16.60;99.90
2489;DHT22;1255;48.716;9.124;2023-07-02T06:40:48;16.70;99.90
2489;DHT22;1255;48.716;9.124;2023-07-02T06:43:15;16.70;99.90
2489;DHT22;1255;48.716;9.124;2023-07-02T06:45:42;16.70;99.90
2489;DHT22;1255;48.716;9.124;2023-07-02T06:48:10;16.70;99.90
2489;DHT22;1255;48.716;9.124;2023-07-02T06:50:36;16.80;99.90
2489;DHT22;1255;48.716;9.124;2023-07-02T06:53:03;16.80;99.90
2489;DHT22;1255;48.716;9.124;2023-07-02T06:55:30;16.90;99.90
2489;DHT22;1255;48.716;9.124;2023-07-02T06:57:56;17.00;99.90
2489;DHT22;1255;48.716;9.124;2023-07-02T07:00:23;17.10;99.90
2489;DHT22;1255;48.716;9.124;2023-07-02T07:02:50;17.20;99.90
2489;DHT22;1255;48.716;9.124;2023-07-02T07:05:18;17.20;99.90
2489;DHT22;1255;48.716;9.124;2023-07-02T07:07:45;17.20;99.90
2489;DHT22;1255;48.716;9.124;2023-07-02T07:10:12;17.30;99.90
2489;DHT22;1255;48.716;9.124;2023-07-02T07:12:38;17.20;99.90
2489;DHT22;1255;48.716;9.124;2023-07-02T07:15:06;17.20;99.90
2489;DHT22;1255;48.716;9.124;2023-07-02T07:17:33;17.30;99.90
2489;DHT22;1255;48.716;9.124;2023-07-02T07:19:59;17.30;99.90
2489;DHT22;1255;48.716;9.124;2023-07-02T07:22:29;17.40;99.90
2489;DHT22;1255;48.716;9.124;2023-07-02T07:24:56;17.30;99.90
2489;DHT22;1255;48.716;9.124;2023-07-02T07:27:22;17.30;99.90
2489;DHT22;1255;48.716;9.124;2023-07-02T07:29:49;17.40;99.90
2489;DHT22;1255;48.716;9.124;2023-07-02T07:32:16;17.60;99.90
2489;DHT22;1255;48.716;9.124;2023-07-02T07:34:43;17.60;99.90
2489;DHT22;1255;48.716;9.124;2023-07-02T07:37:09;17.70;99.90
2489;DHT22;1255;48.716;9.124;2023-07-02T07:39:37;17.70;99.90
2489;DHT22;1255;48.716;9.124;2023-07-02T07:42:05;17.70;99.90
2489;DHT22;1255;48.716;9.124;2023-07-02T07:44:32;17.70;99.90
2489;DHT22;1255;48.716;9.124;2023-07-02T07:46:59;17.70;99.90
2489;DHT22;1255;48.716;9.124;2023-07-02T07:49:26;17.70;99.90
2489;DHT22;1255;48.716;9.124;2023-07-02T07:51:52;17.80;99.90
2489;DHT22;1255;48.716;9.124;2023-07-02T07:54:19;17.90;99.90
2489;DHT22;1255;48.716;9.124;2023-07-02T07:56:47;18.10;99.90
2489;DHT22;1255;48.716;9.124;2023-07-02T07:59:14;18.20;99.90
2489;DHT22;1255;48.716;9.124;2023-07-02T08:01:41;18.20;99.90
2489;DHT22;1255;48.716;9.124;2023-07-02T08:04:07;18.20;99.90
2489;DHT22;1255;48.716;9.124;2023-07-02T08:06:34;18.40;99.90
2489;DHT22;1255;48.716;9.124;2023-07-02T08:09:01;18.40;99.90
2489;DHT22;1255;48.716;9.124;2023-07-02T08:11:28;18.50;99.90
2489;DHT22;1255;48.716;9.124;2023-07-02T08:13:56;18.60;99.90
2489;DHT22;1255;48.716;9.124;2023-07-02T08:16:23;18.70;99.90
2489;DHT22;1255;48.716;9.124;2023-07-02T08:18:50;18.70;99.90
2489;DHT22;1255;48.716;9.124;2023-07-02T08:21:16;18.70;99.90
2489;DHT22;1255;48.716;9.124;2023-07-02T08:23:43;18.70;99.90
2489;DHT22;1255;48.716;9.124;2023-07-02T08:26:10;18.70;99.90
2489;DHT22;1255;48.716;9.124;2023-07-02T08:28:37;18.70;99.90
2489;DHT22;1255;48.716;9.124;2023-07-02T08:31:05;18.80;99.90
2489;DHT22;1255;48.716;9.124;2023-07-02T08:33:32;18.90;99.90
2489;DHT22;1255;48.716;9.124;2023-07-02T08:35:59;18.80;99.90
2489;DHT22;1255;48.716;9.124;2023-07-02T08:38:26;18.80;99.90
2489;DHT22;1255;48.716;9.124;2023-07-02T08:40:53;18.90;99.90
2489;DHT22;1255;48.716;9.124;2023-07-02T08:43:20;18.90;99.90
2489;DHT22;1255;48.716;9.124;2023-07-02T08:45:46;18.90;99.90
2489;DHT22;1255;48.716;9.124;2023-07-02T08:48:14;19.00;99.90
2489;DHT22;1255;48.716;9.124;2023-07-02T08:50:42;19.00;99.90
2489;DHT22;1255;48.716;9.124;2023-07-02T08:53:09;19.00;99.90
2489;DHT22;1255;48.716;9.124;2023-07-02T08:55:36;19.10;99.90
2489;DHT22;1255;48.716;9.124;2023-07-02T08:58:02;19.20;99.90
2489;DHT22;1255;48.716;9.124;2023-07-02T09:00:29;19.30;99.90
2489;DHT22;1255;48.716;9.124;2023-07-02T09:03:11;19.40;99.90
2489;DHT22;1255;48.716;9.124;2023-07-02T09:05:49;19.50;99.90
2489;DHT22;1255;48.716;9.124;2023-07-02T09:08:23;19.60;99.90
2489;DHT22;1255;48.716;9.124;2023-07-02T09:10:49;19.80;99.90
2489;DHT22;1255;48.716;9.124;2023-07-02T09:13:16;19.80;99.90
2489;DHT22;1255;48.716;9.124;2023-07-02T09:15:43;19.90;99.90
2489;DHT22;1255;48.716;9.124;2023-07-02T09:18:17;19.90;99.90
2489;DHT22;1255;48.716;9.124;2023-07-02T09:20:44;19.90;99.90
2489;DHT22;1255;48.716;9.124;2023-07-02T09:23:17;19.80;99.90
2489;DHT22;1255;48.716;9.124;2023-07-02T09:25:44;19.80;99.90
2489;DHT22;1255;48.716;9.124;2023-07-02T09:28:15;19.90;99.90
2489;DHT22;1255;48.716;9.124;2023-07-02T09:30:52;20.00;99.90
2489;DHT22;1255;48.716;9.124;2023-07-02T09:33:19;20.10;99.90
2489;DHT22;1255;48.716;9.124;2023-07-02T09:35:46;20.30;99.90
2489;DHT22;1255;48.716;9.124;2023-07-02T09:38:13;20.40;99.90
2489;DHT22;1255;48.716;9.124;2023-07-02T09:40:46;20.50;99.90
2489;DHT22;1255;48.716;9.124;2023-07-02T09:43:13;20.50;99.90
2489;DHT22;1255;48.716;9.124;2023-07-02T09:45:43;20.50;99.90
2489;DHT22;1255;48.716;9.124;2023-07-02T09:48:12;20.60;99.90
2489;DHT22;1255;48.716;9.124;2023-07-02T09:50:40;20.60;99.90
2489;DHT22;1255;48.716;9.124;2023-07-02T09:53:07;20.50;99.90
2489;DHT22;1255;48.716;9.124;2023-07-02T09:55:34;20.40;99.90
2489;DHT22;1255;48.716;9.124;2023-07-02T09:58:02;20.20;99.90
2489;DHT22;1255;48.716;9.124;2023-07-02T10:00:29;20.20;99.90
2489;DHT22;1255;48.716;9.124;2023-07-02T10:02:56;20.10;99.90
2489;DHT22;1255;48.716;9.124;2023-07-02T10:05:27;20.00;99.90
2489;DHT22;1255;48.716;9.124;2023-07-02T10:07:54;20.10;99.90
2489;DHT22;1255;48.716;9.124;2023-07-02T10:10:30;20.30;99.90
2489;DHT22;1255;48.716;9.124;2023-07-02T10:12:58;20.50;99.90
2489;DHT22;1255;48.716;9.124;2023-07-02T10:15:27;20.70;99.90
2489;DHT22;1255;48.716;9.124;2023-07-02T10:17:55;20.80;99.90
2489;DHT22;1255;48.716;9.124;2023-07-02T10:20:31;21.00;99.90
2489;DHT22;1255;48.716;9.124;2023-07-02T10:22:59;21.20;99.90
2489;DHT22;1255;48.716;9.124;2023-07-02T10:25:27;21.30;99.90
2489;DHT22;1255;48.716;9.124;2023-07-02T10:27:55;21.40;99.90
2489;DHT22;1255;48.716;9.124;2023-07-02T10:30:33;21.50;99.90
2489;DHT22;1255;48.716;9.124;2023-07-02T10:33:10;21.40;99.90
2489;DHT22;1255;48.716;9.124;2023-07-02T10:35:37;21.30;99.90
2489;DHT22;1255;48.716;9.124;2023-07-02T10:38:04;21.30;99.90
2489;DHT22;1255;48.716;9.124;2023-07-02T10:40:32;21.50;99.90
2489;DHT22;1255;48.716;9.124;2023-07-02T10:43:00;21.80;99.90
2489;DHT22;1255;48.716;9.124;2023-07-02T10:45:35;21.90;99.90
2489;DHT22;1255;48.716;9.124;2023-07-02T10:48:02;22.00;99.90
2489;DHT22;1255;48.716;9.124;2023-07-02T10:50:31;22.10;99.90
2489;DHT22;1255;48.716;9.124;2023-07-02T10:52:58;22.30;99.90
2489;DHT22;1255;48.716;9.124;2023-07-02T10:55:26;22.30;99.90
2489;DHT22;1255;48.716;9.124;2023-07-02T10:58:03;22.30;99.90
2489;DHT22;1255;48.716;9.124;2023-07-02T11:00:30;22.30;99.90
2489;DHT22;1255;48.716;9.124;2023-07-02T11:02:59;22.30;99.90
2489;DHT22;1255;48.716;9.124;2023-07-02T11:05:26;22.30;99.90
2489;DHT22;1255;48.716;9.124;2023-07-02T11:07:52;22.30;99.90
2489;DHT22;1255;48.716;9.124;2023-07-02T11:10:23;22.30;99.90
2489;DHT22;1255;48.716;9.124;2023-07-02T11:12:50;22.30;99.90
2489;DHT22;1255;48.716;9.124;2023-07-02T11:15:18;22.30;99.90
2489;DHT22;1255;48.716;9.124;2023-07-02T11:17:45;22.60;99.90
2489;DHT22;1255;48.716;9.124;2023-07-02T11:20:14;22.80;99.90
2489;DHT22;1255;48.716;9.124;2023-07-02T11:22:41;22.80;99.90
2489;DHT22;1255;48.716;9.124;2023-07-02T11:25:12;22.70;99.90
2489;DHT22;1255;48.716;9.124;2023-07-02T11:27:39;22.50;99.90
2489;DHT22;1255;48.716;9.124;2023-07-02T11:30:07;22.40;99.90
2489;DHT22;1255;48.716;9.124;2023-07-02T11:32:46;22.30;99.90
2489;DHT22;1255;48.716;9.124;2023-07-02T11:35:16;22.10;98.50
2489;DHT22;1255;48.716;9.124;2023-07-02T11:37:43;21.90;98.50
2489;DHT22;1255;48.716;9.124;2023-07-02T11:40:11;21.80;99.00
2489;DHT22;1255;48.716;9.124;2023-07-02T11:42:39;21.80;99.90
2489;DHT22;1255;48.716;9.124;2023-07-02T11:45:06;21.90;99.60
2489;DHT22;1255;48.716;9.124;2023-07-02T11:47:33;22.00;99.50
2489;DHT22;1255;48.716;9.124;2023-07-02T11:50:00;22.20;99.90
2489;DHT22;1255;48.716;9.124;2023-07-02T11:52:28;22.40;99.90
2489;DHT22;1255;48.716;9.124;2023-07-02T11:54:55;22.70;98.30
2489;DHT22;1255;48.716;9.124;2023-07-02T11:57:22;22.90;99.60
2489;DHT22;1255;48.716;9.124;2023-07-02T11:59:49;23.20;99.70
2489;DHT22;1255;48.716;9.124;2023-07-02T12:02:15;23.30;97.90
2489;DHT22;1255;48.716;9.124;2023-07-02T12:04:42;23.60;99.40
2489;DHT22;1255;48.716;9.124;2023-07-02T12:07:09;23.80;99.90
2489;DHT22;1255;48.716;9.124;2023-07-02T12:09:37;23.90;98.60
2489;DHT22;1255;48.716;9.124;2023-07-02T12:12:04;23.80;98.60
2489;DHT22;1255;48.716;9.124;2023-07-02T12:14:31;23.70;97.70
2489;DHT22;1255;48.716;9.124;2023-07-02T12:16:58;23.50;98.40
2489;DHT22;1255;48.716;9.124;2023-07-02T12:19:24;23.20;97.80
2489;DHT22;1255;48.716;9.124;2023-07-02T12:21:51;23.20;98.20
2489;DHT22;1255;48.716;9.124;2023-07-02T12:24:18;23.10;97.80
2489;DHT22;1255;48.716;9.124;2023-07-02T12:26:46;23.00;98.00
2489;DHT22;1255;48.716;9.124;2023-07-02T12:29:13;22.70;97.60
2489;DHT22;1255;48.716;9.124;2023-07-02T12:31:39;22.50;98.80
2489;DHT22;1255;48.716;9.124;2023-07-02T12:34:06;22.50;98.90
2489;DHT22;1255;48.716;9.124;2023-07-02T12:36:33;22.60;98.20
2489;DHT22;1255;48.716;9.124;2023-07-02T12:38:59;22.70;96.30
2489;DHT22;1255;48.716;9.124;2023-07-02T12:41:26;22.90;97.30
2489;DHT22;1255;48.716;9.124;2023-07-02T12:43:55;23.20;97.90
2489;DHT22;1255;48.716;9.124;2023-07-02T12:46:22;23.30;97.00
2489;DHT22;1255;48.716;9.124;2023-07-02T12:48:49;23.30;96.40
2489;DHT22;1255;48.716;9.124;2023-07-02T12:51:15;23.20;96.70
2489;DHT22;1255;48.716;9.124;2023-07-02T12:53:42;23.20;96.90
2489;DHT22;1255;48.716;9.124;2023-07-02T12:56:09;23.30;98.30
2489;DHT22;1255;48.716;9.124;2023-07-02T12:58:36;23.40;98.00
2489;DHT22;1255;48.716;9.124;2023-07-02T13:01:04;23.50;97.60
2489;DHT22;1255;48.716;9.124;2023-07-02T13:03:31;23.60;96.90
2489;DHT22;1255;48.716;9.124;2023-07-02T13:05:57;23.70;97.10
2489;DHT22;1255;48.716;9.124;2023-07-02T13:08:24;23.80;97.50
2489;DHT22;1255;48.716;9.124;2023-07-02T13:10:51;23.90;96.50
2489;DHT22;1255;48.716;9.124;2023-07-02T13:13:18;23.90;96.60
2489;DHT22;1255;48.716;9.124;2023-07-02T13:15:44;23.90;97.50
2489;DHT22;1255;48.716;9.124;2023-07-02T13:18:13;23.70;95.40
2489;DHT22;1255;48.716;9.124;2023-07-02T13:20:39;23.60;97.20
2489;DHT22;1255;48.716;9.124;2023-07-02T13:23:06;23.70;97.70
2489;DHT22;1255;48.716;9.124;2023-07-02T13:25:33;23.90;97.40
2489;DHT22;1255;48.716;9.124;2023-07-02T13:27:59;23.80;97.30
2489;DHT22;1255;48.716;9.124;2023-07-02T13:30:26;23.90;97.10
2489;DHT22;1255;48.716;9.124;2023-07-02T13:32:54;24.10;96.90
2489;DHT22;1255;48.716;9.124;2023-07-02T13:35:22;24.30;96.20
2489;DHT22;1255;48.716;9.124;2023-07-02T13:37:48;24.40;96.30
2489;DHT22;1255;48.716;9.124;2023-07-02T13:40:15;24.60;96.20
2489;DHT22;1255;48.716;9.124;2023-07-02T13:42:42;24.70;95.30
2489;DHT22;1255;48.716;9.124;2023-07-02T13:45:10;24.80;92.30
2489;DHT22;1255;48.716;9.124;2023-07-02T13:47:37;24.60;92.90
2489;DHT22;1255;48.716;9.124;2023-07-02T13:50:05;24.60;95.10
2489;DHT22;1255;48.716;9.124;2023-07-02T13:52:33;24.50;94.10
2489;DHT22;1255;48.716;9.124;2023-07-02T13:54:59;24.50;95.20
2489;DHT22;1255;48.716;9.124;2023-07-02T13:57:26;24.60;94.80
2489;DHT22;1255;48.716;9.124;2023-07-02T13:59:54;24.50;94.00
2489;DHT22;1255;48.716;9.124;2023-07-02T14:02:22;24.50;94.50
2489;DHT22;1255;48.716;9.124;2023-07-02T14:04:49;24.60;95.10
2489;DHT22;1255;48.716;9.124;2023-07-02T14:07:16;24.70;92.90
2489;DHT22;1255;48.716;9.124;2023-07-02T14:09:43;24.80;94.10
2489;DHT22;1255;48.716;9.124;2023-07-02T14:12:10;24.90;93.70
2489;DHT22;1255;48.716;9.124;2023-07-02T14:14:37;24.90;93.90
2489;DHT22;1255;48.716;9.124;2023-07-02T14:17:05;25.10;94.20
2489;DHT22;1255;48.716;9.124;2023-07-02T14:19:32;25.20;94.90
2489;DHT22;1255;48.716;9.124;2023-07-02T14:21:59;25.20;93.30
2489;DHT22;1255;48.716;9.124;2023-07-02T14:24:26;25.40;95.50
2489;DHT22;1255;48.716;9.124;2023-07-02T14:26:55;25.50;95.00
2489;DHT22;1255;48.716;9.124;2023-07-02T14:29:22;25.40;92.80
2489;DHT22;1255;48.716;9.124;2023-07-02T14:31:49;25.40;94.00
2489;DHT22;1255;48.716;9.124;2023-07-02T14:34:17;25.50;92.60
2489;DHT22;1255;48.716;9.124;2023-07-02T14:36:44;25.50;94.00
2489;DHT22;1255;48.716;9.124;2023-07-02T14:39:11;25.60;95.10
2489;DHT22;1255;48.716;9.124;2023-07-02T14:41:37;25.60;93.40
2489;DHT22;1255;48.716;9.124;2023-07-02T14:44:04;25.50;92.80
2489;DHT22;1255;48.716;9.124;2023-07-02T14:46:32;25.40;92.00
2489;DHT22;1255;48.716;9.124;2023-07-02T14:49:00;25.40;92.60
2489;DHT22;1255;48.716;9.124;2023-07-02T14:51:29;25.40;92.80
2489;DHT22;1255;48.716;9.124;2023-07-02T14:53:56;25.30;92.70
2489;DHT22;1255;48.716;9.124;2023-07-02T14:56:23;25.30;92.60
2489;DHT22;1255;48.716;9.124;2023-07-02T14:58:49;25.40;94.30
2489;DHT22;1255;48.716;9.124;2023-07-02T15:01:16;25.40;93.60
2489;DHT22;1255;48.716;9.124;2023-07-02T15:03:43;25.40;93.60
2489;DHT22;1255;48.716;9.124;2023-07-02T15:06:12;25.30;93.30
2489;DHT22;1255;48.716;9.124;2023-07-02T15:08:41;25.20;93.20
2489;DHT22;1255;48.716;9.124;2023-07-02T15:11:09;25.20;92.90
2489;DHT22;1255;48.716;9.124;2023-07-02T15:13:39;25.30;93.30
2489;DHT22;1255;48.716;9.124;2023-07-02T15:16:07;25.30;93.20
2489;DHT22;1255;48.716;9.124;2023-07-02T15:18:35;25.20;93.20
2489;DHT22;1255;48.716;9.124;2023-07-02T15:21:02;25.20;93.40
2489;DHT22;1255;48.716;9.124;2023-07-02T15:23:29;25.20;93.30
2489;DHT22;1255;48.716;9.124;2023-07-02T15:25:59;25.20;92.70
2489;DHT22;1255;48.716;9.124;2023-07-02T15:28:27;25.20;94.10
2489;DHT22;1255;48.716;9.124;2023-07-02T15:30:55;25.10;93.10
2489;DHT22;1255;48.716;9.124;2023-07-02T15:33:23;25.00;94.00
2489;DHT22;1255;48.716;9.124;2023-07-02T15:35:50;24.90;93.80
2489;DHT22;1255;48.716;9.124;2023-07-02T15:38:17;25.10;93.50
2489;DHT22;1255;48.716;9.124;2023-07-02T15:40:46;25.10;93.20
2489;DHT22;1255;48.716;9.124;2023-07-02T15:43:14;25.10;93.10
2489;DHT22;1255;48.716;9.124;2023-07-02T15:45:41;25.10;93.10
2489;DHT22;1255;48.716;9.124;2023-07-02T15:48:08;25.10;92.80
2489;DHT22;1255;48.716;9.124;2023-07-02T15:50:35;25.00;93.70
2489;DHT22;1255;48.716;9.124;2023-07-02T15:53:02;25.00;93.30
2489;DHT22;1255;48.716;9.124;2023-07-02T15:55:33;24.90;93.00
2489;DHT22;1255;48.716;9.124;2023-07-02T15:58:00;24.80;93.20
2489;DHT22;1255;48.716;9.124;2023-07-02T16:00:28;24.90;93.10
2489;DHT22;1255;48.716;9.124;2023-07-02T16:02:55;24.80;92.70
2489;DHT22;1255;48.716;9.124;2023-07-02T16:05:22;24.80;93.20